Latest Weather Observations for Barimunya

IDW60801

Issued at 11:43 am WST Tuesday 15 October 2019 (issued every 10 minutes, with the page automatically refreshed every 10 minutes)

About weather observations | Map of weather stations | Latest weather observations for WA | Other Formats
Station Details ID: 505053 Name: BARIMUNYA Lat: -22.67 Lon: 119.16 Height: 629.17 m
Data from the previous 72 hours. | See also: Recent months for locations in Western Australia
Date/Time
WST
Temp
°C
App
Temp
°C
Dew
Point
°C
Rel
Hum
%
Delta-T
°C
Wind Press
QNH
hPa
Press
MSL
hPa
Rain since
9am
mm
Dir  Spd
km/h
Gust
km/h
Spd
kts
Gust
kts
15/11:30am 32.9 25.4 -1.4 11 16.8 WNW 28 44 15 24 1014.2 1010.0 0.0
15/11:00am 32.0 24.6 -0.9 12 16.2 WNW 28 41 15 22 1014.8 1010.6 0.0
15/10:30am 30.9 25.2 -0.7 13 15.5 WNW 19 39 10 21 1015.0 1010.8 0.0
15/10:00am 29.1 24.5 -1.1 14 14.5 WNW 13 30 7 16 1015.2 1011.0 0.0
15/09:30am 28.2 24.8 -0.9 15 13.9 SSW 7 15 4 8 1015.3 1011.2 0.0
15/09:00am 27.2 23.6 0.8 18 12.9 WSW 9 15 5 8 1015.5 1011.4 0.0
15/08:30am 26.1 21.9 -0.8 17 12.7 SW 11 17 6 9 1015.5 1011.4 0.0
15/08:00am 25.2 20.6 -0.8 18 12.2 W 13 20 7 11 1015.5 1011.4 0.0
15/07:30am 24.5 20.1 -2.1 17 12.1 W 11 15 6 8 1015.4 1011.3 0.0
15/07:00am 22.9 19.6 0.1 22 10.7 W 7 11 4 6 1015.2 1011.0 0.0
15/06:30am 20.9 19.0 0.7 26 9.4 CALM 0 2 0 1 1015.0 1010.8 0.0
15/06:00am 16.7 13.8 -0.9 30 7.7 WNW 4 7 2 4 1014.8 1010.6 0.0
15/05:30am 17.1 15.1 -0.1 31 7.7 CALM 0 0 0 0 1014.6 1010.4 0.0
15/05:00am 16.9 14.8 -0.8 30 7.8 CALM 0 6 0 3 1014.5 1010.3 0.0
15/04:30am 18.4 15.1 -0.9 27 8.5 WNW 6 9 3 5 1014.4 1010.2 0.0
15/04:00am 18.8 16.8 -0.1 28 8.5 CALM 0 0 0 0 1014.2 1010.0 0.0
15/03:30am 19.8 16.6 -0.2 26 9.1 WNW 6 9 3 5 1014.1 1009.9 0.0
15/03:00am 20.6 18.3 0.4 26 9.4 NW 2 7 1 4 1014.1 1009.9 0.0
15/02:30am 20.7 17.4 0.0 25 9.5 NW 7 9 4 5 1014.2 1010.0 0.0
15/02:00am 22.1 18.5 0.6 24 10.1 NW 9 11 5 6 1014.4 1010.2 0.0
15/01:30am 22.8 19.1 0.0 22 10.7 WNW 9 11 5 6 1014.5 1010.3 0.0
15/01:00am 23.5 19.4 -0.1 21 11.1 NW 11 13 6 7 1014.9 1010.7 0.0
15/12:30am 24.2 19.0 -0.2 20 11.5 NW 17 20 9 11 1015.2 1011.0 0.0
15/12:00am 24.7 19.5 0.3 20 11.6 WNW 17 20 9 11 1015.3 1011.2 0.0
 
Date/Time
WST
Temp
°C
App
Temp
°C
Dew
Point
°C
Rel
Hum
%
Delta-T
°C
Wind Press
QNH
hPa
Press
MSL
hPa
Rain since
9am
mm
Dir  Spd
km/h
Gust
km/h
Spd
kts
Gust
kts
14/11:30pm 24.3 19.6 0.6 21 11.3 WNW 15 19 8 10 1015.3 1011.2 0.0
14/11:00pm 26.1 21.4 0.7 19 12.3 NW 15 17 8 9 1015.5 1011.4 0.0
14/10:30pm 26.9 21.4 0.6 18 12.8 NNW 19 24 10 13 1015.7 1011.5 0.0
14/10:00pm 27.3 22.1 0.1 17 13.2 NNW 17 24 9 13 1015.7 1011.5 0.0
14/09:30pm 27.6 23.2 0.4 17 13.3 NNW 13 20 7 11 1015.8 1011.6 0.0
14/09:00pm 28.2 23.0 0.0 16 13.7 NNW 17 20 9 11 1015.7 1011.5 0.0
14/08:30pm 28.9 22.9 -1.2 14 14.4 NNW 20 28 11 15 1015.4 1011.3 0.0
14/08:00pm 29.6 22.7 -2.8 12 15.1 NNW 24 39 13 21 1015.0 1010.8 0.0
14/07:30pm 29.7 22.9 -1.6 13 15.0 NNW 24 33 13 18 1014.8 1010.6 0.0
14/07:00pm 30.1 23.4 -1.3 13 15.1 NNW 24 39 13 21 1014.5 1010.3 0.0
14/06:30pm 30.5 24.0 -2.1 12 15.5 NNW 22 33 12 18 1014.3 1010.1 0.0
14/06:00pm 31.1 25.1 -1.6 12 15.8 NW 20 32 11 17 1014.0 1009.8 0.0
14/05:30pm 32.0 25.9 -2.1 11 16.4 NW 20 32 11 17 1013.5 1009.3 0.0
14/05:00pm 32.8 25.9 -2.8 10 17.0 NW 24 35 13 19 1013.4 1009.2 0.0
14/04:30pm 33.2 25.6 -2.5 10 17.2 NW 28 46 15 25 1013.2 1009.0 0.0
14/04:26pm 33.2 25.6 -2.5 10 17.2 NNW 28 46 15 25 1013.1 1008.9 0.0
14/04:00pm 33.9 26.7 -2.0 10 17.5 NNW 26 39 14 21 1013.1 1008.9 0.0
14/03:30pm 34.2 28.0 -3.2 9 17.9 NNW 20 37 11 20 1013.1 1008.9 0.0
14/03:00pm 33.7 26.3 -3.5 9 17.7 NNW 26 41 14 22 1013.2 1009.0 0.0
14/02:30pm 34.9 28.8 -2.6 9 18.3 NNW 20 35 11 19 1013.4 1009.2 0.0
14/02:00pm 33.4 27.3 -2.3 10 17.3 NNW 20 35 11 19 1013.5 1009.3 0.0
14/01:30pm 33.5 27.6 -1.0 11 17.1 NNW 20 30 11 16 1013.8 1009.6 0.0
14/01:16pm 34.2 27.8 -1.7 10 17.7 NW 22 61 12 33 1014.0 1009.8 0.0
14/01:00pm 33.2 26.9 -1.2 11 16.9 N 22 32 12 17 1014.0 1009.8 0.0
14/12:30pm 33.3 26.4 -2.4 10 17.3 NNW 24 35 13 19 1014.4 1010.2 0.0
14/12:00pm 32.9 26.7 -0.2 12 16.5 WNW 22 32 12 17 1014.7 1010.5 0.0
14/11:30am 32.7 28.4 0.7 13 16.2 N 13 26 7 14 1015.0 1010.8 0.0
14/11:00am 31.9 27.1 0.1 13 15.9 NNW 15 28 8 15 1015.4 1011.3 0.0
14/10:30am 30.9 26.7 -0.7 13 15.5 NW 11 26 6 14 1015.8 1011.6 0.0
14/10:00am 30.2 25.6 -1.2 13 15.1 W 13 24 7 13 1016.0 1011.8 0.0
14/09:30am 30.7 25.8 -0.8 13 15.4 W 15 26 8 14 1016.1 1011.9 0.0
14/09:00am 30.2 24.4 -1.2 13 15.1 SW 19 26 10 14 1016.0 1011.8 0.0
14/08:30am 29.4 23.7 -0.9 14 14.6 WSW 19 32 10 17 1015.9 1011.7 0.0
14/08:00am 28.3 22.9 -1.7 14 14.2 W 17 24 9 13 1015.8 1011.6 0.0
14/07:30am 26.7 21.2 -2.1 15 13.3 WSW 17 20 9 11 1015.4 1011.3 0.0
14/07:00am 25.0 20.4 -0.9 18 12.1 WNW 13 19 7 10 1015.1 1010.9 0.0
14/06:30am 23.1 19.3 -0.4 21 10.9 WNW 9 13 5 7 1014.8 1010.6 0.0
14/06:00am 20.6 18.2 -0.1 25 9.5 W 2 7 1 4 1014.6 1010.4 0.0
14/05:30am 20.2 18.2 0.1 26 9.2 CALM 0 0 0 0 1014.4 1010.2 0.0
14/05:00am 20.9 17.7 -0.4 24 9.7 W 6 7 3 4 1014.1 1009.9 0.0
14/04:30am 21.5 18.4 0.1 24 9.9 W 6 9 3 5 1014.0 1009.8 0.0
14/04:00am 22.4 18.8 0.3 23 10.4 W 9 11 5 6 1013.7 1009.5 0.0
14/03:30am 23.1 18.4 0.9 23 10.6 WSW 15 19 8 10 1013.6 1009.4 0.0
14/03:00am 24.0 18.7 1.6 23 10.9 W 19 24 10 13 1013.1 1008.9 0.0
14/02:30am 24.2 18.8 1.2 22 11.1 W 19 24 10 13 1013.0 1008.8 0.0
14/02:00am 24.5 19.1 1.4 22 11.2 W 19 22 10 12 1012.9 1008.7 0.0
14/01:30am 25.1 19.5 1.3 21 11.6 WSW 20 24 11 13 1013.0 1008.8 0.0
14/01:00am 25.6 20.1 1.7 21 11.8 WSW 20 26 11 14 1013.2 1009.0 0.0
14/12:30am 26.4 19.6 0.9 19 12.4 W 26 33 14 18 1013.4 1009.2 0.0
14/12:00am 27.0 20.7 1.4 19 12.7 W 24 30 13 16 1013.6 1009.4 0.0
 
Date/Time
WST
Temp
°C
App
Temp
°C
Dew
Point
°C
Rel
Hum
%
Delta-T
°C
Wind Press
QNH
hPa
Press
MSL
hPa
Rain since
9am
mm
Dir  Spd
km/h
Gust
km/h
Spd
kts
Gust
kts
13/11:30pm 27.4 21.4 1.0 18 13.0 W 22 30 12 16 1013.4 1009.2 0.0
13/11:00pm 27.6 22.4 0.4 17 13.3 WNW 17 22 9 12 1013.3 1009.1 0.0
13/10:30pm 29.4 23.8 0.1 15 14.4 WNW 19 30 10 16 1013.1 1008.9 0.0
13/10:00pm 27.4 23.7 0.2 17 13.2 W 9 13 5 7 1013.0 1008.8 0.0
13/09:30pm 28.2 24.6 0.9 17 13.5 WSW 9 11 5 6 1012.8 1008.6 0.0
13/09:00pm 28.4 24.9 1.0 17 13.6 W 9 9 5 5 1012.8 1008.6 0.0
13/08:30pm 28.7 25.1 0.4 16 13.9 WNW 9 11 5 6 1012.7 1008.5 0.0
13/08:00pm 29.0 26.0 0.7 16 14.0 W 6 7 3 4 1012.4 1008.1 0.0
13/07:30pm 30.1 26.7 -0.3 14 14.9 W 7 9 4 5 1012.0 1007.8 0.0
13/07:00pm 31.2 27.4 -0.5 13 15.6 W 9 13 5 7 1011.7 1007.5 0.0
13/06:30pm 32.0 28.7 0.2 13 15.9 NW 7 9 4 5 1011.3 1007.1 0.0
13/06:00pm 32.8 29.4 -0.3 12 16.5 NW 7 11 4 6 1011.1 1006.9 0.0
13/05:30pm 33.3 28.7 -1.1 11 17.0 WNW 13 17 7 9 1010.8 1006.5 0.0
13/05:00pm 33.5 30.0 -1.0 11 17.1 W 7 13 4 7 1010.6 1006.3 0.0
13/04:30pm 33.8 28.9 -0.7 11 17.2 N 15 26 8 14 1010.6 1006.3 0.0
13/04:00pm 34.9 31.0 -1.2 10 18.0 W 9 22 5 12 1010.6 1006.3 0.0
13/03:30pm 34.2 29.7 -0.4 11 17.4 N 13 22 7 12 1010.7 1006.4 0.0
13/03:21pm 35.4 30.3 0.5 11 17.9 WSW 17 59 9 32 1010.7 1006.4 0.0
13/03:00pm 34.3 31.1 -0.4 11 17.5 SW 6 13 3 7 1010.9 1006.6 0.0
13/02:30pm 34.8 30.3 0.0 11 17.7 E 13 26 7 14 1011.1 1006.9 0.0
13/02:00pm 33.1 29.0 -0.1 12 16.7 NE 11 24 6 13 1011.4 1007.2 0.0
13/01:30pm 33.7 30.1 0.4 12 16.9 NNE 9 22 5 12 1011.7 1007.5 0.0
13/01:00pm 33.8 29.4 0.5 12 16.9 N 13 19 7 10 1012.3 1008.0 0.0
13/12:30pm 33.4 29.5 1.3 13 16.5 ESE 11 19 6 10 1012.7 1008.5 0.0
13/12:00pm 33.7 28.7 1.5 13 16.6 NNE 17 26 9 14 1013.0 1008.8 0.0
13/11:30am 32.7 29.4 2.7 15 15.7 WSW 9 17 5 9 1013.4 1009.2 0.0
13/11:00am 31.9 27.9 3.0 16 15.1 E 13 24 7 13 1014.0 1009.8 0.0
13/10:30am 31.8 27.4 2.9 16 15.1 SSW 15 26 8 14 1014.3 1010.1 0.0
13/10:00am 31.1 27.5 3.2 17 14.6 SE 11 28 6 15 1014.6 1010.4 0.0
13/09:30am 30.9 26.7 3.8 18 14.3 E 15 22 8 12 1014.7 1010.5 0.0
13/09:00am 30.2 25.1 4.0 19 13.8 ESE 20 28 11 15 1014.7 1010.5 0.0
13/08:30am 29.1 24.3 4.6 21 13.0 ESE 19 26 10 14 1014.7 1010.5 0.0
13/08:00am 28.1 23.4 5.0 23 12.2 SE 19 26 10 14 1014.7 1010.5 0.0
13/07:30am 27.0 23.1 5.3 25 11.5 SSE 15 20 8 11 1014.6 1010.4 0.0
13/07:00am 25.8 21.8 4.9 26 10.9 S 15 19 8 10 1014.4 1010.2 0.0
13/06:30am 22.7 21.5 4.7 31 9.2 CALM 0 7 0 4 1014.2 1010.0 0.0
13/06:00am 21.3 20.1 4.4 33 8.5 CALM 0 0 0 0 1014.0 1009.8 0.0
13/05:30am 21.5 18.4 3.7 31 8.8 SSW 9 11 5 6 1013.8 1009.6 0.0
13/05:00am 22.6 19.3 4.6 31 9.2 SSW 11 13 6 7 1013.5 1009.3 0.0
13/04:30am 22.0 19.0 4.1 31 9.0 S 9 11 5 6 1013.3 1009.1 0.0
13/04:00am 21.9 19.2 3.6 30 9.1 S 7 9 4 5 1013.1 1008.9 0.0
13/03:30am 23.5 20.5 4.0 28 9.9 SSE 9 11 5 6 1012.9 1008.7 0.0
13/03:00am 24.2 20.8 4.0 27 10.3 S 11 13 6 7 1012.9 1008.7 0.0
13/02:30am 24.4 21.0 4.2 27 10.3 S 11 13 6 7 1013.2 1009.0 0.0
13/02:00am 25.3 21.5 3.9 25 10.9 S 13 15 7 8 1013.3 1009.1 0.0
13/01:30am 25.8 22.1 4.3 25 11.1 SSW 13 19 7 10 1013.6 1009.4 0.0
13/01:00am 25.6 22.1 3.6 24 11.2 SSW 11 13 6 7 1013.7 1009.5 0.0
13/12:30am 26.5 23.0 3.7 23 11.7 SSW 11 15 6 8 1013.7 1009.5 0.0
13/12:00am 27.3 23.0 3.1 21 12.4 SSW 15 19 8 10 1013.7 1009.5 0.0
 
Date/Time
WST
Temp
°C
App
Temp
°C
Dew
Point
°C
Rel
Hum
%
Delta-T
°C
Wind Press
QNH
hPa
Press
MSL
hPa
Rain since
9am
mm
Dir  Spd
km/h
Gust
km/h
Spd
kts
Gust
kts
12/11:30pm 27.9 23.2 2.9 20 12.8 SSW 17 22 9 12 1013.7 1009.5 0.0
12/11:00pm 27.9 23.8 2.2 19 13.0 SW 13 19 7 10 1013.8 1009.6 0.0
12/10:30pm 28.1 23.9 1.6 18 13.2 SSW 13 19 7 10 1013.7 1009.5 0.0
12/10:00pm 27.9 24.7 0.6 17 13.4 SW 7 11 4 6 1013.7 1009.5 0.0
12/09:30pm 29.2 25.2 0.8 16 14.1 WSW 11 13 6 7 1013.4 1009.2 0.0
12/09:00pm 30.3 25.5 -0.1 14 15.0 WSW 15 20 8 11 1013.2 1009.0 0.0
12/08:30pm 31.0 26.5 -0.6 13 15.5 W 13 17 7 9 1012.9 1008.7 0.0
12/08:00pm 31.4 26.8 -1.4 12 15.9 W 13 17 7 9 1012.4 1008.1 0.0
12/07:30pm 31.7 27.9 -3.6 10 16.5 WNW 7 9 4 5 1012.1 1007.9 0.0
12/07:00pm 33.6 27.6 -6.9 7 18.2 NNW 17 26 9 14 1011.5 1007.3 0.0
12/06:30pm 34.1 27.7 -6.5 7 18.5 NNW 19 30 10 16 1010.9 1006.6 0.0
12/06:00pm 34.5 28.0 -6.3 7 18.7 NNW 20 33 11 18 1010.6 1006.3 0.0
12/05:30pm 35.3 28.3 -7.7 6 19.3 NW 22 32 12 17 1010.3 1006.1 0.0
12/05:00pm 36.1 28.7 -7.1 6 19.8 NNW 24 39 13 21 1009.9 1005.7 0.0
12/04:30pm 36.2 28.3 -5.0 7 19.5 NNW 28 44 15 24 1009.8 1005.6 0.0
12/04:00pm 36.6 29.1 -4.7 7 19.7 NW 26 39 14 21 1009.6 1005.4 0.0
12/03:47pm 37.3 29.2 -6.3 6 20.4 NW 28 46 15 25 1009.6 1005.4 0.0
12/03:30pm 37.6 30.3 -6.0 6 20.5 N 24 39 13 21 1009.5 1005.2 0.0
12/03:08pm 37.6 29.6 -6.0 6 20.5 NNW 28 50 15 27 1009.4 1005.1 0.0
12/03:00pm 37.7 30.4 -6.0 6 20.6 NNW 24 41 13 22 1009.5 1005.2 0.0
12/02:30pm 37.3 30.2 -4.2 7 20.0 N 24 44 13 24 1009.4 1005.1 0.0
12/02:00pm 36.1 29.3 -5.1 7 19.5 NNW 22 33 12 18 1010.1 1005.9 0.0
12/01:37pm 36.5 30.3 -4.8 7 19.6 NNW 19 41 10 22 1010.4 1006.2 0.0
12/01:30pm 36.9 31.3 -2.7 8 19.5 N 17 32 9 17 1010.6 1006.3 0.0
12/01:00pm 35.4 31.0 -2.3 9 18.5 NNE 11 26 6 14 1011.1 1006.9 0.0
12/12:30pm 35.8 31.8 -2.0 9 18.7 ESE 9 19 5 10 1011.5 1007.3 0.0
12/12:00pm 35.4 30.8 -0.8 10 18.2 NNW 13 24 7 13 1012.3 1008.0 0.0

Other formats

Comma delimited format used in spreadsheet applications
http://www.bom.gov.au/fwo/IDW60801/IDW60801.99313.axf

JavaScript Object Notation format (JSON) in row-major order
http://www.bom.gov.au/fwo/IDW60801/IDW60801.99313.json

Data quality

Most of these data are generated automatically and are frequently updated. Quality checks on data are not normally performed. It is possible for incorrect values to appear. Refer to information at About Latest Weather Observations and please check the disclaimer before using these data.